Time;durP1;ratioP1;P1;durP2;ratioP2;P2;SDS_P1;SDS_P2;PMS_P1;PMS_P2;Temp;Humidity;BMP_temperature;BMP_pressure;BME280_temperature;BME280_humidity;BME280_pressure;Samples;Min_cycle;Max_cycle;Signal;HPM_P1;HPM_P2
2023/03/25 00:01:44;;;;;;;4.95;1.67;;;;;;;;;;4976030;28;20239;-63
2023/03/25 00:04:09;;;;;;;7.05;1.55;;;;;;;;;;4976286;28;20221;-62
2023/03/25 00:06:35;;;;;;;7.55;1.60;;;;;;;;;;4959639;28;20252;-63
2023/03/25 00:09:01;;;;;;;7.25;1.67;;;;;;;;;;4976163;28;20213;-62
2023/03/25 00:11:27;;;;;;;7.25;1.63;;;;;;;;;;4976425;28;20210;-62
2023/03/25 00:13:52;;;;;;;6.90;1.65;;;;;;;;;;4977009;28;20209;-63
2023/03/25 00:16:18;;;;;;;5.32;1.55;;;;;;;;;;4975464;28;20633;-62
2023/03/25 00:18:46;;;;;;;8.30;1.73;;;;;;;;;;4976554;28;20209;-63
2023/03/25 00:21:12;;;;;;;8.45;1.77;;;;;;;;;;4975942;28;20210;-62
2023/03/25 00:23:37;;;;;;;6.10;1.60;;;;;;;;;;4975990;28;20353;-63
2023/03/25 00:26:03;;;;;;;6.63;1.73;;;;;;;;;;4974684;28;20229;-62
2023/03/25 00:28:29;;;;;;;9.30;1.90;;;;;;;;;;4956654;29;20218;-62
2023/03/25 00:30:57;;;;;;;8.30;1.83;;;;;;;;;;4956745;29;20234;-62
2023/03/25 00:33:22;;;;;;;5.80;1.65;;;;;;;;;;4955510;29;20215;-62
2023/03/25 00:35:51;;;;;;;9.90;2.17;;;;;;;;;;4956093;29;20224;-63
2023/03/25 00:38:17;;;;;;;8.27;1.65;;;;;;;;;;4957024;28;20369;-62
2023/03/25 00:40:42;;;;;;;7.15;1.83;;;;;;;;;;4976166;28;20729;-62
2023/03/25 00:43:09;;;;;;;5.63;1.70;;;;;;;;;;4975210;28;20232;-62
2023/03/25 00:45:35;;;;;;;6.63;1.70;;;;;;;;;;4958963;28;20268;-62
2023/03/25 00:48:00;;;;;;;8.40;1.92;;;;;;;;;;4976017;28;20213;-62
2023/03/25 00:50:25;;;;;;;7.30;1.63;;;;;;;;;;4974598;28;20268;-62
2023/03/25 00:52:52;;;;;;;9.88;1.70;;;;;;;;;;4975886;28;20217;-62
2023/03/25 00:55:17;;;;;;;10.07;1.50;;;;;;;;;;4975552;28;20214;-63
2023/03/25 00:57:43;;;;;;;10.23;2.40;;;;;;;;;;4957913;28;20310;-63
2023/03/25 01:00:10;;;;;;;12.27;2.20;;;;;;;;;;4975618;28;20304;-62
2023/03/25 01:02:35;;;;;;;7.50;1.70;;;;;;;;;;4974901;28;20244;-63
2023/03/25 01:05:01;;;;;;;12.55;1.92;;;;;;;;;;4974432;28;20234;-62
2023/03/25 01:07:28;;;;;;;9.88;2.42;;;;;;;;;;4958370;28;20268;-62
2023/03/25 01:09:53;;;;;;;5.35;1.75;;;;;;;;;;4975798;28;20260;-63
2023/03/25 01:12:18;;;;;;;10.70;1.92;;;;;;;;;;4974324;28;20217;-63
2023/03/25 01:14:44;;;;;;;11.73;1.95;;;;;;;;;;4975852;28;20743;-63
2023/03/25 01:17:09;;;;;;;10.80;2.25;;;;;;;;;;4974926;28;20232;-62
2023/03/25 01:19:35;;;;;;;14.38;2.22;;;;;;;;;;4974765;28;20214;-62
2023/03/25 01:22:00;;;;;;;13.52;2.03;;;;;;;;;;4974877;28;20214;-63
2023/03/25 01:24:25;;;;;;;8.35;1.75;;;;;;;;;;4975697;28;20210;-63
2023/03/25 01:26:51;;;;;;;8.38;2.30;;;;;;;;;;4966782;28;20234;-63
2023/03/25 01:29:16;;;;;;;12.05;2.05;;;;;;;;;;4955762;29;20227;-62
2023/03/25 01:31:42;;;;;;;11.15;2.25;;;;;;;;;;4954919;29;20366;-63
2023/03/25 01:34:07;;;;;;;10.57;2.20;;;;;;;;;;4955604;29;20233;-62
2023/03/25 01:36:34;;;;;;;7.30;2.13;;;;;;;;;;4943853;28;20248;-63
2023/03/25 01:39:00;;;;;;;11.50;2.15;;;;;;;;;;4968175;28;20329;-63
2023/03/25 01:41:26;;;;;;;12.57;2.70;;;;;;;;;;4955482;29;20790;-62
2023/03/25 01:44:01;;;;;;;9.05;2.00;;;;;;;;;;4955826;29;20632;-63
2023/03/25 01:46:26;;;;;;;10.00;2.00;;;;;;;;;;4954672;29;20218;-62
2023/03/25 01:48:52;;;;;;;10.02;2.10;;;;;;;;;;4955697;29;20568;-62
2023/03/25 01:51:19;;;;;;;10.93;2.28;;;;;;;;;;4955137;29;20219;-62
2023/03/25 01:53:44;;;;;;;8.95;2.30;;;;;;;;;;4954837;29;20219;-62
2023/03/25 01:56:12;;;;;;;10.15;2.33;;;;;;;;;;4938076;29;20281;-63
2023/03/25 01:58:37;;;;;;;9.93;1.92;;;;;;;;;;4955489;29;20214;-63
2023/03/25 02:01:02;;;;;;;11.40;1.95;;;;;;;;;;4954284;29;20223;-62
2023/03/25 02:03:28;;;;;;;12.68;2.00;;;;;;;;;;4955500;29;20635;-62
2023/03/25 02:05:53;;;;;;;14.43;2.25;;;;;;;;;;4938127;29;20246;-63
2023/03/25 02:08:19;;;;;;;10.57;2.38;;;;;;;;;;4950658;28;20680;-63
2023/03/25 02:10:45;;;;;;;6.63;1.80;;;;;;;;;;4945998;28;20686;-63
2023/03/25 02:13:10;;;;;;;9.20;1.90;;;;;;;;;;4945984;28;20778;-62
2023/03/25 02:15:40;;;;;;;13.50;2.30;;;;;;;;;;4944849;28;20234;-63
2023/03/25 02:18:06;;;;;;;9.95;1.90;;;;;;;;;;4928585;28;20230;-63
2023/03/25 02:20:31;;;;;;;10.25;2.00;;;;;;;;;;4964551;28;20214;-63
2023/03/25 02:22:58;;;;;;;13.65;2.08;;;;;;;;;;4957288;28;20592;-63
2023/03/25 02:25:44;;;;;;;12.05;2.15;;;;;;;;;;4947313;28;20224;-63
2023/03/25 02:28:13;;;;;;;11.07;2.20;;;;;;;;;;4937182;28;20650;-63
2023/03/25 02:30:51;;;;;;;11.68;2.30;;;;;;;;;;4936072;28;20210;-63
2023/03/25 02:33:18;;;;;;;10.55;2.20;;;;;;;;;;4963882;28;20218;-63
2023/03/25 02:36:03;;;;;;;9.07;2.30;;;;;;;;;;4961761;28;20217;-63
2023/03/25 02:38:30;;;;;;;8.65;2.38;;;;;;;;;;4944647;28;20257;-63
2023/03/25 02:40:57;;;;;;;9.77;2.50;;;;;;;;;;4927926;28;20807;-63
2023/03/25 02:43:44;;;;;;;11.30;2.38;;;;;;;;;;4944079;28;20225;-63
2023/03/25 02:46:11;;;;;;;8.68;2.10;;;;;;;;;;4938964;28;20612;-62
2023/03/25 02:48:50;;;;;;;8.55;2.33;;;;;;;;;;4938517;28;20346;-63
2023/03/25 02:51:17;;;;;;;6.80;2.17;;;;;;;;;;4939597;28;20821;-64
2023/03/25 02:53:43;;;;;;;7.05;2.10;;;;;;;;;;4963659;28;20217;-64
2023/03/25 02:56:09;;;;;;;6.15;2.20;;;;;;;;;;4945635;28;20225;-63
2023/03/25 02:58:35;;;;;;;6.70;1.80;;;;;;;;;;4963635;28;20699;-63
2023/03/25 03:01:00;;;;;;;7.40;2.13;;;;;;;;;;4946765;28;20297;-64
2023/03/25 03:03:26;;;;;;;5.88;1.73;;;;;;;;;;4962915;28;20744;-64
2023/03/25 03:05:51;;;;;;;11.30;2.70;;;;;;;;;;4963754;28;20217;-64
2023/03/25 03:08:18;;;;;;;10.10;2.08;;;;;;;;;;4958568;28;20747;-63
2023/03/25 03:10:51;;;;;;;8.23;2.10;;;;;;;;;;4969231;28;20308;-63
2023/03/25 03:13:20;;;;;;;11.48;2.10;;;;;;;;;;4973173;28;20214;-63
2023/03/25 03:15:52;;;;;;;10.50;2.00;;;;;;;;;;4956356;28;20220;-64
2023/03/25 03:18:25;;;;;;;9.77;2.20;;;;;;;;;;4972348;28;20237;-64
2023/03/25 03:20:59;;;;;;;7.65;1.90;;;;;;;;;;4973488;28;20689;-64
2023/03/25 03:23:32;;;;;;;4.63;1.70;;;;;;;;;;4955861;28;20296;-63
2023/03/25 03:25:59;;;;;;;7.80;2.10;;;;;;;;;;4955716;28;20261;-65
2023/03/25 03:28:24;;;;;;;8.85;1.98;;;;;;;;;;4977201;28;20217;-64
2023/03/25 03:30:53;;;;;;;8.95;2.38;;;;;;;;;;4964564;28;20254;-64
2023/03/25 03:33:32;;;;;;;7.80;2.47;;;;;;;;;;4957133;29;20229;-63
2023/03/25 03:36:00;;;;;;;8.00;2.50;;;;;;;;;;4941766;28;20264;-64
2023/03/25 03:38:27;;;;;;;5.72;2.10;;;;;;;;;;4957520;28;20225;-64
2023/03/25 03:40:54;;;;;;;7.72;2.00;;;;;;;;;;4957988;29;20213;-64
2023/03/25 03:43:26;;;;;;;7.65;2.05;;;;;;;;;;4940506;29;20214;-63
2023/03/25 03:45:52;;;;;;;9.18;2.33;;;;;;;;;;4972076;28;20241;-64
2023/03/25 03:48:27;;;;;;;11.05;2.47;;;;;;;;;;4976832;28;20308;-63
2023/03/25 03:50:55;;;;;;;12.80;2.53;;;;;;;;;;4977113;28;20209;-64
2023/03/25 03:53:28;;;;;;;10.30;3.13;;;;;;;;;;4975751;28;20218;-64
2023/03/25 03:56:00;;;;;;;8.32;2.65;;;;;;;;;;4959858;28;20237;-64
2023/03/25 03:58:28;;;;;;;10.20;2.55;;;;;;;;;;4959836;28;20688;-63
2023/03/25 04:01:01;;;;;;;10.60;2.53;;;;;;;;;;4976099;28;20218;-64
2023/03/25 04:03:33;;;;;;;8.50;2.90;;;;;;;;;;4959650;28;20213;-63
2023/03/25 04:06:00;;;;;;;10.38;2.33;;;;;;;;;;4976683;28;20641;-64
2023/03/25 04:08:28;;;;;;;9.57;2.50;;;;;;;;;;4958481;28;20241;-64
2023/03/25 04:10:57;;;;;;;8.40;2.30;;;;;;;;;;4960738;28;20262;-64
2023/03/25 04:13:23;;;;;;;7.38;2.20;;;;;;;;;;4946241;28;20210;-64
2023/03/25 04:15:48;;;;;;;9.85;2.47;;;;;;;;;;4958949;28;20214;-64
2023/03/25 04:18:13;;;;;;;8.25;2.47;;;;;;;;;;4960910;28;20241;-64
2023/03/25 04:20:43;;;;;;;13.25;2.53;;;;;;;;;;4951897;28;20301;-64
2023/03/25 04:23:14;;;;;;;11.00;2.38;;;;;;;;;;4939014;28;20277;-63
2023/03/25 04:25:40;;;;;;;13.13;2.65;;;;;;;;;;4926413;28;20299;-64
2023/03/25 04:28:06;;;;;;;10.32;2.70;;;;;;;;;;4946773;28;20309;-63
2023/03/25 04:30:31;;;;;;;11.82;2.72;;;;;;;;;;4947203;28;20760;-63
2023/03/25 04:32:56;;;;;;;8.00;2.40;;;;;;;;;;4947443;28;20218;-64
2023/03/25 04:35:21;;;;;;;12.05;2.58;;;;;;;;;;4946323;28;20297;-64
2023/03/25 04:37:48;;;;;;;10.23;2.72;;;;;;;;;;4957224;28;21071;-64
2023/03/25 04:40:15;;;;;;;12.30;2.80;;;;;;;;;;4946783;28;20605;-64
2023/03/25 04:42:41;;;;;;;9.88;2.80;;;;;;;;;;4939258;28;20297;-63
2023/03/25 04:45:07;;;;;;;6.32;2.25;;;;;;;;;;4922103;28;20782;-63
2023/03/25 04:47:33;;;;;;;10.25;2.63;;;;;;;;;;4958593;28;20328;-63
2023/03/25 04:49:58;;;;;;;10.63;2.75;;;;;;;;;;4947963;28;20297;-64
2023/03/25 04:52:23;;;;;;;9.15;2.67;;;;;;;;;;4965577;28;20482;-64
2023/03/25 04:54:48;;;;;;;11.93;2.67;;;;;;;;;;4958874;28;20305;-63
2023/03/25 04:57:14;;;;;;;11.20;2.78;;;;;;;;;;4945731;28;20593;-63
2023/03/25 04:59:39;;;;;;;12.33;2.70;;;;;;;;;;4947519;28;20277;-64
2023/03/25 05:02:04;;;;;;;11.95;2.40;;;;;;;;;;4946412;28;20218;-63
2023/03/25 05:04:30;;;;;;;11.15;3.03;;;;;;;;;;4926257;28;20763;-63
2023/03/25 05:06:55;;;;;;;11.18;2.60;;;;;;;;;;4940507;28;20217;-64
2023/03/25 05:09:21;;;;;;;9.60;2.40;;;;;;;;;;4957694;28;20209;-64
2023/03/25 05:11:46;;;;;;;9.15;2.78;;;;;;;;;;4962659;28;20237;-64
2023/03/25 05:14:12;;;;;;;9.43;2.30;;;;;;;;;;4963999;28;20225;-63
2023/03/25 05:16:37;;;;;;;7.85;2.10;;;;;;;;;;4965169;28;20221;-63
2023/03/25 05:19:02;;;;;;;12.95;2.13;;;;;;;;;;4945907;28;20228;-63
2023/03/25 05:21:28;;;;;;;12.52;2.47;;;;;;;;;;4946688;28;20222;-64
2023/03/25 05:23:53;;;;;;;8.10;2.35;;;;;;;;;;4945890;28;20618;-64
2023/03/25 05:26:19;;;;;;;8.80;2.40;;;;;;;;;;4942981;28;20326;-63
2023/03/25 05:28:44;;;;;;;68.63;61.63;;;;;;;;;;4938736;28;20909;-64
2023/03/25 05:31:10;;;;;;;13.05;6.47;;;;;;;;;;4937915;28;20250;-64
2023/03/25 05:33:41;;;;;;;1999.90;999.90;;;;;;;;;;4941377;28;20819;-64
2023/03/25 05:36:08;;;;;;;510.90;465.25;;;;;;;;;;4945717;28;20217;-63
2023/03/25 05:38:33;;;;;;;14.00;4.03;;;;;;;;;;4945796;28;20280;-63
2023/03/25 05:40:59;;;;;;;11.93;3.92;;;;;;;;;;4946272;28;20593;-64
2023/03/25 05:43:24;;;;;;;14.60;3.75;;;;;;;;;;4945572;28;20748;-63
2023/03/25 05:45:49;;;;;;;12.15;2.80;;;;;;;;;;4945828;28;20660;-64
2023/03/25 05:48:15;;;;;;;10.10;2.85;;;;;;;;;;4944640;28;20242;-64
2023/03/25 05:50:46;;;;;;;17.55;6.07;;;;;;;;;;4938304;28;20210;-64
2023/03/25 05:53:12;;;;;;;6.43;2.15;;;;;;;;;;4936948;28;20226;-63
2023/03/25 05:55:37;;;;;;;6.97;2.50;;;;;;;;;;4921710;28;20205;-64
2023/03/25 05:58:03;;;;;;;8.00;2.53;;;;;;;;;;4945238;28;20729;-63
2023/03/25 06:00:29;;;;;;;10.63;2.40;;;;;;;;;;4945020;28;20282;-63
2023/03/25 06:02:54;;;;;;;10.05;2.35;;;;;;;;;;4945611;28;20313;-64
2023/03/25 06:05:22;;;;;;;8.43;2.28;;;;;;;;;;4945643;28;20371;-63
2023/03/25 06:07:48;;;;;;;10.85;2.67;;;;;;;;;;4944901;28;20273;-64
2023/03/25 06:10:15;;;;;;;12.00;2.63;;;;;;;;;;4945255;28;20237;-63
2023/03/25 06:12:41;;;;;;;7.05;2.03;;;;;;;;;;4955473;28;20922;-63
2023/03/25 06:15:07;;;;;;;6.80;2.05;;;;;;;;;;4954558;28;20206;-63
2023/03/25 06:17:33;;;;;;;3.67;1.80;;;;;;;;;;4967202;28;20230;-63
2023/03/25 06:19:59;;;;;;;6.32;1.88;;;;;;;;;;4944205;28;20214;-63
2023/03/25 06:22:25;;;;;;;7.70;1.40;;;;;;;;;;4936631;28;20708;-63
2023/03/25 06:24:51;;;;;;;5.45;1.60;;;;;;;;;;4937702;28;20309;-63
2023/03/25 06:27:16;;;;;;;7.85;2.20;;;;;;;;;;4942405;28;20286;-63
2023/03/25 06:29:42;;;;;;;16.45;3.03;;;;;;;;;;4945725;28;20230;-63
2023/03/25 06:32:07;;;;;;;11.98;2.80;;;;;;;;;;4945854;28;20313;-62
2023/03/25 06:34:32;;;;;;;10.55;3.03;;;;;;;;;;4958363;28;20217;-63
2023/03/25 06:36:58;;;;;;;15.27;3.87;;;;;;;;;;4973156;28;20453;-64
2023/03/25 06:39:23;;;;;;;11.68;2.97;;;;;;;;;;4964187;28;20261;-64
2023/03/25 06:41:49;;;;;;;12.25;3.10;;;;;;;;;;4953779;29;20261;-62
2023/03/25 06:44:14;;;;;;;10.23;3.50;;;;;;;;;;4954435;29;20225;-63
2023/03/25 06:46:39;;;;;;;12.10;3.97;;;;;;;;;;4954821;29;20230;-63
2023/03/25 06:49:04;;;;;;;12.07;3.97;;;;;;;;;;4953415;29;20211;-64
2023/03/25 06:51:30;;;;;;;11.65;3.33;;;;;;;;;;4954838;29;20207;-63
2023/03/25 06:53:55;;;;;;;14.43;3.72;;;;;;;;;;4954560;29;20705;-64
2023/03/25 06:56:20;;;;;;;13.82;4.00;;;;;;;;;;4953559;29;20254;-63
2023/03/25 06:58:46;;;;;;;13.32;4.25;;;;;;;;;;4954252;29;20218;-64
2023/03/25 07:01:11;;;;;;;15.90;3.42;;;;;;;;;;4953332;28;20226;-63
2023/03/25 07:03:36;;;;;;;11.93;3.50;;;;;;;;;;4953632;29;20218;-64
2023/03/25 07:06:02;;;;;;;12.07;3.17;;;;;;;;;;4954298;29;20210;-62
2023/03/25 07:08:27;;;;;;;15.75;3.85;;;;;;;;;;4954294;29;20573;-64
2023/03/25 07:10:53;;;;;;;12.18;3.70;;;;;;;;;;4953571;29;20211;-63
2023/03/25 07:13:18;;;;;;;16.50;3.53;;;;;;;;;;4953806;29;20289;-63
2023/03/25 07:15:43;;;;;;;11.15;3.25;;;;;;;;;;4954440;29;20206;-63
2023/03/25 07:18:09;;;;;;;11.23;3.78;;;;;;;;;;4964362;28;20264;-62
2023/03/25 07:20:34;;;;;;;13.77;3.33;;;;;;;;;;4968389;28;20685;-63
2023/03/25 07:22:59;;;;;;;15.77;3.75;;;;;;;;;;4964520;28;20218;-63
2023/03/25 07:25:25;;;;;;;19.60;3.58;;;;;;;;;;4960957;28;20221;-62
2023/03/25 07:27:50;;;;;;;12.65;2.88;;;;;;;;;;4963640;28;20209;-63
2023/03/25 07:30:15;;;;;;;14.95;3.17;;;;;;;;;;4963206;28;20302;-62
2023/03/25 07:32:42;;;;;;;15.98;3.60;;;;;;;;;;4960721;28;20249;-63
2023/03/25 07:35:08;;;;;;;12.68;3.70;;;;;;;;;;4963977;28;20210;-64
2023/03/25 07:37:33;;;;;;;14.88;3.78;;;;;;;;;;4961516;28;20223;-65
2023/03/25 07:39:59;;;;;;;16.45;3.85;;;;;;;;;;4961860;28;20223;-65
2023/03/25 07:42:24;;;;;;;11.20;3.20;;;;;;;;;;4964422;28;20218;-65
2023/03/25 07:44:49;;;;;;;14.25;3.10;;;;;;;;;;4962764;28;20576;-65
2023/03/25 07:47:15;;;;;;;14.20;3.75;;;;;;;;;;4964045;28;20257;-65
2023/03/25 07:49:40;;;;;;;16.20;3.33;;;;;;;;;;4962620;28;20561;-65
2023/03/25 07:52:06;;;;;;;15.63;3.70;;;;;;;;;;4961840;28;20264;-65
2023/03/25 07:54:31;;;;;;;16.17;4.63;;;;;;;;;;4963474;28;20211;-66
2023/03/25 07:56:57;;;;;;;17.30;5.60;;;;;;;;;;4962248;28;20210;-65
2023/03/25 07:59:23;;;;;;;15.43;3.60;;;;;;;;;;4969274;28;20221;-65
2023/03/25 08:01:48;;;;;;;14.98;4.03;;;;;;;;;;4973194;28;20210;-65
2023/03/25 08:04:14;;;;;;;17.77;3.97;;;;;;;;;;4972464;28;20210;-64
2023/03/25 08:06:39;;;;;;;16.85;5.18;;;;;;;;;;4972467;28;20237;-65
2023/03/25 08:09:06;;;;;;;15.95;3.65;;;;;;;;;;4972952;28;20213;-64
2023/03/25 08:11:31;;;;;;;16.05;4.40;;;;;;;;;;4972996;28;20213;-65
2023/03/25 08:13:56;;;;;;;16.08;3.58;;;;;;;;;;4975233;28;20202;-65
2023/03/25 08:16:22;;;;;;;18.40;4.32;;;;;;;;;;4976060;28;20206;-64
2023/03/25 08:18:51;;;;;;;14.75;3.78;;;;;;;;;;4976751;28;20232;-65
2023/03/25 08:21:17;;;;;;;15.43;4.00;;;;;;;;;;4966784;28;20553;-64
2023/03/25 08:23:43;;;;;;;14.80;3.83;;;;;;;;;;4958494;28;20242;-65
2023/03/25 08:26:09;;;;;;;19.25;3.72;;;;;;;;;;4956619;28;20682;-64
2023/03/25 08:28:34;;;;;;;19.88;4.05;;;;;;;;;;4956398;28;20281;-65
2023/03/25 08:31:01;;;;;;;18.15;4.30;;;;;;;;;;4970701;28;20234;-65
2023/03/25 08:33:32;;;;;;;16.50;3.83;;;;;;;;;;4976490;28;20669;-64
2023/03/25 08:35:58;;;;;;;18.08;4.20;;;;;;;;;;4959304;28;20218;-64
2023/03/25 08:38:24;;;;;;;17.63;4.15;;;;;;;;;;4974599;28;20226;-65
2023/03/25 08:40:49;;;;;;;21.07;4.43;;;;;;;;;;4956134;29;20214;-64
2023/03/25 08:43:14;;;;;;;17.80;3.85;;;;;;;;;;4956287;29;20588;-64
2023/03/25 08:45:40;;;;;;;15.00;3.88;;;;;;;;;;4963486;28;20692;-64
2023/03/25 08:48:05;;;;;;;25.17;4.72;;;;;;;;;;4955683;29;20221;-64
2023/03/25 08:50:31;;;;;;;19.15;4.43;;;;;;;;;;4956908;29;20249;-64
2023/03/25 08:52:57;;;;;;;13.55;3.08;;;;;;;;;;4956671;29;20210;-64
2023/03/25 08:55:23;;;;;;;17.33;3.80;;;;;;;;;;4955714;29;20233;-64
2023/03/25 08:57:48;;;;;;;14.35;3.70;;;;;;;;;;4956507;29;20682;-65
2023/03/25 09:00:13;;;;;;;16.42;3.50;;;;;;;;;;4956259;29;20222;-64
2023/03/25 09:02:39;;;;;;;18.02;3.95;;;;;;;;;;4955786;29;20326;-64
2023/03/25 09:05:05;;;;;;;17.52;3.92;;;;;;;;;;4956371;29;20210;-64
2023/03/25 09:07:31;;;;;;;13.57;3.75;;;;;;;;;;4956363;29;20210;-64
2023/03/25 09:09:56;;;;;;;17.10;4.68;;;;;;;;;;4956103;29;20293;-64
2023/03/25 09:12:21;;;;;;;18.85;4.63;;;;;;;;;;4959604;28;20222;-64
2023/03/25 09:14:46;;;;;;;18.33;5.40;;;;;;;;;;4962582;28;20686;-65
2023/03/25 09:17:12;;;;;;;18.00;4.75;;;;;;;;;;4971241;28;20592;-64
2023/03/25 09:19:37;;;;;;;20.77;5.32;;;;;;;;;;4975725;28;20209;-64
2023/03/25 09:22:03;;;;;;;20.85;4.28;;;;;;;;;;4975023;28;20241;-64
2023/03/25 09:24:28;;;;;;;19.65;4.45;;;;;;;;;;4974035;28;20684;-65
2023/03/25 09:26:53;;;;;;;22.27;4.93;;;;;;;;;;4967175;28;20207;-65
2023/03/25 09:29:19;;;;;;;24.45;5.35;;;;;;;;;;4955633;29;20218;-64
2023/03/25 09:31:44;;;;;;;18.08;5.53;;;;;;;;;;4954988;29;20753;-65
2023/03/25 09:34:10;;;;;;;20.38;4.93;;;;;;;;;;4955603;29;20213;-64
2023/03/25 09:36:36;;;;;;;17.48;3.85;;;;;;;;;;4955904;29;20231;-65
2023/03/25 09:39:01;;;;;;;19.67;4.45;;;;;;;;;;4963529;28;20351;-63
2023/03/25 09:41:35;;;;;;;19.75;5.10;;;;;;;;;;4972248;28;20218;-64
2023/03/25 09:44:04;;;;;;;24.98;6.53;;;;;;;;;;4968102;28;20252;-64
2023/03/25 09:46:29;;;;;;;24.10;5.68;;;;;;;;;;4948689;28;20313;-66
2023/03/25 09:48:55;;;;;;;20.20;5.35;;;;;;;;;;4964603;28;20293;-64
2023/03/25 09:51:20;;;;;;;22.80;5.90;;;;;;;;;;4963914;28;20296;-64
2023/03/25 09:53:48;;;;;;;22.60;5.78;;;;;;;;;;4963978;28;20234;-64
2023/03/25 09:56:15;;;;;;;24.38;11.48;;;;;;;;;;4963065;28;21418;-63
2023/03/25 09:58:45;;;;;;;18.40;5.57;;;;;;;;;;4959862;28;20686;-63
2023/03/25 10:01:15;;;;;;;19.13;3.97;;;;;;;;;;4959979;28;20655;-62
2023/03/25 10:03:46;;;;;;;19.92;4.00;;;;;;;;;;4952133;28;20732;-62
2023/03/25 10:06:17;;;;;;;21.48;3.95;;;;;;;;;;4947036;28;20215;-63
2023/03/25 10:08:48;;;;;;;18.50;3.90;;;;;;;;;;4955878;28;20210;-63
2023/03/25 10:11:21;;;;;;;17.27;4.53;;;;;;;;;;4957048;28;20249;-62
2023/03/25 10:13:50;;;;;;;16.75;3.85;;;;;;;;;;4973908;28;20707;-63
2023/03/25 10:16:20;;;;;;;19.23;4.00;;;;;;;;;;4956964;28;20225;-63
2023/03/25 10:18:55;;;;;;;19.95;4.43;;;;;;;;;;4956965;28;20769;-63
2023/03/25 10:21:31;;;;;;;16.65;4.20;;;;;;;;;;4956079;28;23066;-62
2023/03/25 10:23:58;;;;;;;17.85;4.43;;;;;;;;;;4957078;28;20568;-62
2023/03/25 10:26:24;;;;;;;22.50;4.15;;;;;;;;;;4956649;28;20222;-63
2023/03/25 10:28:51;;;;;;;21.02;3.90;;;;;;;;;;4938083;29;20323;-62
2023/03/25 10:31:16;;;;;;;20.35;4.10;;;;;;;;;;4954215;28;20242;-63
2023/03/25 10:33:44;;;;;;;18.20;3.58;;;;;;;;;;4954034;29;20217;-63
2023/03/25 10:36:11;;;;;;;21.42;3.97;;;;;;;;;;4954677;28;20226;-63
2023/03/25 10:38:36;;;;;;;18.52;3.92;;;;;;;;;;4954835;28;20214;-62
2023/03/25 10:41:14;;;;;;;18.25;3.75;;;;;;;;;;4936771;29;20220;-62
2023/03/25 10:43:41;;;;;;;22.85;3.78;;;;;;;;;;4940469;28;20214;-62
2023/03/25 10:46:11;;;;;;;17.10;4.00;;;;;;;;;;4958107;28;20732;-62
2023/03/25 10:48:37;;;;;;;17.98;3.58;;;;;;;;;;4953992;29;20210;-62
2023/03/25 10:51:02;;;;;;;21.10;3.45;;;;;;;;;;4954333;29;20203;-62
2023/03/25 10:53:28;;;;;;;21.10;4.15;;;;;;;;;;4954762;29;20234;-63
2023/03/25 10:56:08;;;;;;;19.55;3.63;;;;;;;;;;4954376;28;20709;-64
2023/03/25 10:58:34;;;;;;;20.75;4.07;;;;;;;;;;4936963;29;20230;-63
2023/03/25 11:01:00;;;;;;;18.35;3.80;;;;;;;;;;4937539;29;20305;-63
2023/03/25 11:03:28;;;;;;;22.63;4.55;;;;;;;;;;4936233;29;20297;-63
2023/03/25 11:05:54;;;;;;;22.10;4.78;;;;;;;;;;4938189;28;20298;-63
2023/03/25 11:08:20;;;;;;;21.15;4.28;;;;;;;;;;4953039;28;20293;-65
2023/03/25 11:10:46;;;;;;;17.52;3.30;;;;;;;;;;4960222;28;20224;-64
2023/03/25 11:13:13;;;;;;;16.77;3.60;;;;;;;;;;4972952;28;20670;-63
2023/03/25 11:15:39;;;;;;;21.77;4.22;;;;;;;;;;4972884;28;20217;-64
2023/03/25 11:18:05;;;;;;;19.70;3.88;;;;;;;;;;4955821;28;20226;-62
2023/03/25 11:20:37;;;;;;;21.23;4.00;;;;;;;;;;4973854;28;20213;-61
2023/03/25 11:23:05;;;;;;;21.25;4.07;;;;;;;;;;4972461;28;20217;-62
2023/03/25 11:25:31;;;;;;;21.65;4.00;;;;;;;;;;4973583;28;20217;-63
2023/03/25 11:27:58;;;;;;;21.83;4.22;;;;;;;;;;4959487;28;20205;-61
2023/03/25 11:30:23;;;;;;;25.30;4.82;;;;;;;;;;4963401;28;20301;-61
2023/03/25 11:32:58;;;;;;;23.95;4.50;;;;;;;;;;4945500;28;20301;-62
2023/03/25 11:35:24;;;;;;;23.70;4.05;;;;;;;;;;4966403;28;20212;-61
2023/03/25 11:37:57;;;;;;;23.02;4.18;;;;;;;;;;4972729;28;20225;-63
2023/03/25 11:40:22;;;;;;;20.38;3.92;;;;;;;;;;4955724;28;20206;-62
2023/03/25 11:42:52;;;;;;;19.52;3.97;;;;;;;;;;4944865;28;20230;-62
2023/03/25 11:45:19;;;;;;;17.50;3.70;;;;;;;;;;4943669;28;20211;-63
2023/03/25 11:47:45;;;;;;;21.65;5.05;;;;;;;;;;4963583;28;20210;-62
2023/03/25 11:50:17;;;;;;;21.23;4.38;;;;;;;;;;4959965;28;20348;-62
2023/03/25 11:52:43;;;;;;;22.75;3.88;;;;;;;;;;4956952;29;20260;-61
2023/03/25 11:55:20;;;;;;;20.45;4.25;;;;;;;;;;4940289;29;20305;-62
2023/03/25 11:57:45;;;;;;;22.05;4.03;;;;;;;;;;4957143;29;20261;-61
2023/03/25 12:00:19;;;;;;;19.85;3.60;;;;;;;;;;4963434;28;20218;-62
2023/03/25 12:02:45;;;;;;;16.83;3.40;;;;;;;;;;4965610;28;20263;-62
2023/03/25 12:05:11;;;;;;;18.02;3.20;;;;;;;;;;4965866;28;20214;-62
2023/03/25 12:07:44;;;;;;;12.40;2.60;;;;;;;;;;4967226;28;20376;-62
2023/03/25 12:10:14;;;;;;;14.43;2.50;;;;;;;;;;4968200;28;20230;-63
2023/03/25 12:12:41;;;;;;;15.15;3.13;;;;;;;;;;4976100;28;20217;-62
2023/03/25 12:15:11;;;;;;;15.95;3.00;;;;;;;;;;4976406;28;20202;-62
2023/03/25 12:17:39;;;;;;;19.15;2.80;;;;;;;;;;4959310;28;20356;-62
2023/03/25 12:20:18;;;;;;;17.88;3.22;;;;;;;;;;4971937;28;20213;-62
2023/03/25 12:22:52;;;;;;;19.85;3.03;;;;;;;;;;4967432;28;20553;-63
2023/03/25 12:25:26;;;;;;;18.15;3.58;;;;;;;;;;4961869;28;20741;-62
2023/03/25 12:27:56;;;;;;;19.08;3.03;;;;;;;;;;4964668;28;20258;-63
2023/03/25 12:30:34;;;;;;;14.30;3.33;;;;;;;;;;4965841;28;20210;-62
2023/03/25 12:33:05;;;;;;;14.65;2.85;;;;;;;;;;4947330;28;20229;-63
2023/03/25 12:35:43;;;;;;;15.20;3.17;;;;;;;;;;4975499;28;20216;-63
2023/03/25 12:38:15;;;;;;;16.20;3.25;;;;;;;;;;4958423;28;20275;-63
2023/03/25 12:40:50;;;;;;;15.68;2.47;;;;;;;;;;4963504;28;20224;-63
2023/03/25 12:43:20;;;;;;;14.13;3.38;;;;;;;;;;4961485;28;20220;-64
2023/03/25 12:45:48;;;;;;;12.85;2.78;;;;;;;;;;4953415;28;20220;-63
2023/03/25 12:48:28;;;;;;;7.55;1.85;;;;;;;;;;4954689;28;20222;-62
2023/03/25 12:50:58;;;;;;;6.63;2.00;;;;;;;;;;4962371;28;20214;-64
2023/03/25 12:53:27;;;;;;;3.08;1.90;;;;;;;;;;4958424;28;20286;-63
2023/03/25 12:56:03;;;;;;;7.65;1.88;;;;;;;;;;4963230;28;20214;-63
2023/03/25 12:58:44;;;;;;;2.95;1.13;;;;;;;;;;4937581;29;20311;-63
2023/03/25 13:01:28;;;;;;;3.55;1.40;;;;;;;;;;4955293;29;20218;-62
2023/03/25 13:04:00;;;;;;;3.75;1.08;;;;;;;;;;4956283;29;20582;-62
2023/03/25 13:06:29;;;;;;;8.48;1.70;;;;;;;;;;4938380;29;20637;-62
2023/03/25 13:08:57;;;;;;;5.78;1.67;;;;;;;;;;4938830;29;20215;-62
2023/03/25 13:11:26;;;;;;;2.08;0.82;;;;;;;;;;4955902;29;20218;-63
2023/03/25 13:13:51;;;;;;;3.25;1.33;;;;;;;;;;4939282;29;20250;-62
2023/03/25 13:16:18;;;;;;;5.82;1.67;;;;;;;;;;4954909;29;20214;-62
2023/03/25 13:18:46;;;;;;;9.15;1.85;;;;;;;;;;4956049;29;20777;-62
2023/03/25 13:21:19;;;;;;;6.32;1.05;;;;;;;;;;4938253;29;20242;-65
2023/03/25 13:23:44;;;;;;;9.48;1.90;;;;;;;;;;4955341;29;20214;-62
2023/03/25 13:26:10;;;;;;;8.15;1.40;;;;;;;;;;4955568;28;20214;-62
2023/03/25 13:28:42;;;;;;;17.85;4.18;;;;;;;;;;4938883;29;20206;-62
2023/03/25 13:31:10;;;;;;;16.10;3.17;;;;;;;;;;4940984;28;20238;-62
2023/03/25 13:33:36;;;;;;;16.20;3.03;;;;;;;;;;4955065;28;20222;-62
2023/03/25 13:36:13;;;;;;;13.45;2.28;;;;;;;;;;4960075;28;20305;-62
2023/03/25 13:38:40;;;;;;;12.35;1.67;;;;;;;;;;4957929;28;20214;-62
2023/03/25 13:41:08;;;;;;;15.15;3.08;;;;;;;;;;4951688;28;20225;-62
2023/03/25 13:43:35;;;;;;;14.48;3.10;;;;;;;;;;4966491;28;20643;-62
2023/03/25 13:46:08;;;;;;;12.77;2.88;;;;;;;;;;4949748;28;20214;-62
2023/03/25 13:48:39;;;;;;;14.88;3.28;;;;;;;;;;4932713;28;20218;-62
2023/03/25 13:51:05;;;;;;;12.70;2.55;;;;;;;;;;4963454;28;20288;-62
2023/03/25 13:53:39;;;;;;;8.73;1.80;;;;;;;;;;4968383;28;20361;-62
2023/03/25 13:56:05;;;;;;;10.80;1.95;;;;;;;;;;4962234;28;20316;-62
2023/03/25 13:58:37;;;;;;;10.82;2.13;;;;;;;;;;4960073;28;20584;-62
2023/03/25 14:01:07;;;;;;;9.65;1.90;;;;;;;;;;4961275;28;20232;-62
2023/03/25 14:03:51;;;;;;;6.75;1.65;;;;;;;;;;4964440;28;20300;-61
2023/03/25 14:06:23;;;;;;;6.63;2.40;;;;;;;;;;4966280;28;20701;-62
2023/03/25 14:09:01;;;;;;;5.97;1.48;;;;;;;;;;4968059;28;20217;-62
2023/03/25 14:11:36;;;;;;;9.90;1.80;;;;;;;;;;4933077;28;20212;-62
2023/03/25 14:14:02;;;;;;;5.35;1.30;;;;;;;;;;4932460;28;20218;-62
2023/03/25 14:16:30;;;;;;;9.07;1.77;;;;;;;;;;4932299;28;20228;-62
2023/03/25 14:18:57;;;;;;;2.95;1.50;;;;;;;;;;4925308;28;20592;-62
2023/03/25 14:21:27;;;;;;;5.80;1.33;;;;;;;;;;4940936;28;20254;-62
2023/03/25 14:24:00;;;;;;;9.07;2.20;;;;;;;;;;4925624;28;20229;-62
2023/03/25 14:26:26;;;;;;;10.93;1.67;;;;;;;;;;4930585;28;20217;-62
2023/03/25 14:28:51;;;;;;;6.95;1.42;;;;;;;;;;4949641;28;20214;-62
2023/03/25 14:31:22;;;;;;;3.03;1.00;;;;;;;;;;4931681;28;20304;-62
2023/03/25 14:33:56;;;;;;;6.65;1.33;;;;;;;;;;4948801;28;20249;-62
2023/03/25 14:36:28;;;;;;;12.52;1.77;;;;;;;;;;4948683;28;20272;-63